Portada
METAR-TAF:

METAR-TAF

Aeropuertos :

Hill City Municipal Airport

Hill City, Kansas, Estados Unidos

latitud: 39-22-29N, longitud: 099-49-47W, altitud: 678 m

Observación

El informe se hizo hace 22 minutos, a las 06:53 UTC
Viento 11 kt del sur con ráfagas de 21 kt
Temperatura 26°C
Humedad 54%
Presión 1009 hPa
Visibilidad: 16.1 km
Cielo despejado

METAR: KHLC 070653Z AUTO 17011G21KT 10SM CLR 26/16 A2980 RMK AO2 SLP060 T02560161

Hora: 02:15 (07:15 UTC)


TAF: falta

Observaciones y pronósticos meteorológicos de más de 4000 aeropuertos (mensajes METAR y TAF).

Los puntos amarillos y rojos representan las estaciones disponibles.

Ponga el ratón en el punto deseado para ver el nombre de la estación.

Haga clic para ver las observaciones y los pronósticos meteorológicos.

Para cambiar el mapa : haga clic en los botones verdes con una cruz de color negro para hacer un zoom, en el botón verde con un guión para alejar o en las flechas verdes para mapas adyacentes.


METAR-TAF: